Nearby METAR Reports

 

KMTN - Baltimore/Martin, Maryland, USA
Distance from station: SSE 8mi, 13km
Updated: Wed, 22-Oct-2014 11:30pm EDT
Mostly cloudy
Mostly cloudy
 Wind from WNW
Wind: WNW 16 mph , 26 km/h, Gust: 22 mph , 35 km/h
Temperature: 54°F , 12°C
Dew Point: 46°F , 8°C
Humidity: 77%
Barometer: 29.89 inHg , 1012.2 hPa
Clouds: Mostly cloudy
Visibility: 10 miles , 16 km
Cloud details: Mostly cloudy 5500 ft
2014/10/23 03:30 KMTN 230330Z AUTO 29014G19KT 10SM BKN055 12/08 A2989 RMK AO2 LTG DSNT NE
KDMH - Baltimore/Dwntwn, Maryland, USA
Distance from station: SW 12mi, 19km
Updated: Wed, 22-Oct-2014 10:54pm EDT

 
Temperature: 54°F , 12°C
Dew Point: 45°F , 7°C
Humidity: 72%
Barometer: 29.91 inHg , 1012.9 hPa
2014/10/23 02:54 KDMH 230254Z AUTO 12/07 A2991 RMK AO1 SLP129 T01220067 58001
 
KBWI - Balto/Wash Intl, Maryland, USA
Distance from station: SSW 20mi, 33km
Updated: Wed, 22-Oct-2014 10:54pm EDT
Mostly cloudy
Mostly cloudy
 Wind from NW
Wind: NW 12 mph , 19 km/h, Gust: 23 mph , 37 km/h
Temperature: 54°F , 12°C
Dew Point: 45°F , 7°C
Humidity: 72%
Barometer: 29.91 inHg , 1012.9 hPa
Clouds: Mostly cloudy
Visibility: 10 miles , 16 km
Cloud details: Few Clouds 3600 ft
Mostly cloudy 5000 ft
Mostly cloudy 11000 ft
2014/10/23 02:54 KBWI 230254Z 32010G20KT 10SM FEW036 BKN050 BKN110 12/07 A2991 RMK AO2 SLP128 T01220067 58001
KDMW - Carroll Cnty, Maryland, USA
Distance from station: WNW 30mi, 48km
Updated: Wed, 22-Oct-2014 11:30pm EDT
Overcast
Overcast
 Wind from NNW
Wind: NNW 8 mph , 13 km/h
Temperature: 52°F , 11°C
Dew Point: 45°F , 7°C
Humidity: 77%
Barometer: 29.94 inHg , 1013.9 hPa
Clouds: Overcast
Visibility: 10 miles , 16 km
Cloud details: Overcast 2700 ft
2014/10/23 03:30 KDMW 230330Z AUTO 33007KT 10SM OVC027 11/07 A2994 RMK AO2
 
KNAK - Annapolis/Naval, Maryland, USA
Distance from station: S 30mi, 48km
Updated: Wed, 22-Oct-2014 10:54pm EDT
Light rain, Overcast
Light rain, Overcast
 Wind from NNW
Wind: NNW 20 mph , 31 km/h, Gust: 24 mph , 39 km/h
Temperature: 55°F , 13°C
Dew Point: 46°F , 8°C
Humidity: 72%
Barometer: 29.90 inHg , 1012.5 hPa
Summary: Light rain
Clouds: Overcast
Visibility: 10 miles , 16 km
Cloud details: Mostly cloudy 9000 ft
Overcast 11000 ft
2014/10/23 02:54 KNAK 230254Z AUTO 33017G21KT 10SM -RA BKN090 OVC110 13/08 A2990 RMK AO2 SLP125 P0000 60001 T01330078 58003
KW29 - Stevensville, Maryland, USA
Distance from station: SSE 31mi, 50km
Updated: Wed, 22-Oct-2014 11:32pm EDT

 Wind from NW
Wind: NW 14 mph , 22 km/h, Gust: 23 mph , 37 km/h
Temperature: 54°F , 12°C
Dew Point: 45°F , 7°C
Humidity: 72%
Barometer: 29.87 inHg , 1011.5 hPa
Visibility: 10 miles , 16 km
2014/10/23 03:32 KW29 230332Z AUTO 32012G20KT 10SM 12/07 A2987 RMK AO1
 
KCGS - College Park, Maryland, USA
Distance from station: SW 38mi, 61km
Updated: Wed, 22-Oct-2014 11:30pm EDT
Mostly cloudy
Mostly cloudy
 Wind from NW
Wind: NW 8 mph , 13 km/h
Temperature: 54°F , 12°C
Dew Point: 45°F , 7°C
Humidity: 72%
Barometer: 29.93 inHg , 1013.5 hPa
Clouds: Mostly cloudy
Visibility: 10 miles , 16 km
Cloud details: Partly cloudy 3600 ft
Mostly cloudy 6000 ft
2014/10/23 03:30 KCGS 230330Z AUTO 31007KT 280V340 10SM SCT036 BKN060 12/07 A2993 RMK AO1
KGAI - Gaithersburg, Maryland, USA
Distance from station: WSW 40mi, 65km
Updated: Wed, 22-Oct-2014 11:35pm EDT
Overcast
Overcast
 Wind from NW
Wind: NW 9 mph , 15 km/h, Gust: 16 mph , 26 km/h
Temperature: 52°F , 11°C
Dew Point: 43°F , 6°C
Humidity: 72%
Barometer: 29.98 inHg , 1015.2 hPa
Clouds: Overcast
Visibility: 10 miles , 16 km
Cloud details: Overcast 3200 ft
2014/10/23 03:35 KGAI 230335Z 31008G14KT 10SM OVC032 11/06 A2998 RMK AO1
 
KTHV - York, Pennsylvania, USA
Distance from station: NNW 40mi, 65km
Updated: Wed, 22-Oct-2014 10:53pm EDT
Overcast
Overcast
 Wind from NW
Wind: NW 13 mph , 20 km/h, Gust: 20 mph , 31 km/h
Temperature: 52°F , 11°C
Dew Point: 43°F , 6°C
Humidity: 72%
Barometer: 29.94 inHg , 1013.9 hPa
Clouds: Overcast
Visibility: 10 miles , 16 km
Cloud details: Mostly cloudy 2900 ft
Overcast 5000 ft
2014/10/23 02:53 KTHV 230253Z AUTO 32011G17KT 10SM BKN029 OVC050 11/06 A2994 RMK AO2 SLP142 60000 T01110061 58004
KFDK - Frederick, Maryland, USA
Distance from station: W 47mi, 75km
Updated: Wed, 22-Oct-2014 11:30pm EDT
Overcast
Overcast
 Wind from NW
Wind: NW 8 mph , 13 km/h
Temperature: 55°F , 13°C
Dew Point: 43°F , 6°C
Humidity: 63%
Barometer: 29.99 inHg , 1015.6 hPa
Clouds: Overcast
Visibility: 10 miles , 16 km
Cloud details: Overcast 3800 ft
2014/10/23 03:30 KFDK 230330Z AUTO 32007KT 10SM OVC038 13/06 A2999 RMK AO2 LTG DSNT E
 
KESN - Easton/Newnam, Maryland, USA
Distance from station: SSE 48mi, 78km
Updated: Wed, 22-Oct-2014 11:45pm EDT
Overcast
Overcast
 Wind from NNW
Wind: NNW 10 mph , 17 km/h, Gust: 22 mph , 35 km/h
Temperature: 55°F , 13°C
Dew Point: 50°F , 10°C
Humidity: 82%
Barometer: 29.89 inHg , 1012.2 hPa
Clouds: Overcast
Visibility: 10 miles , 16 km
Cloud details: Partly cloudy 2700 ft
Overcast 3300 ft
2014/10/23 03:45 KESN 230345Z AUTO 34009G19KT 10SM SCT027 OVC033 13/10 A2989 RMK AO2 T01300095
KDCA - Washington/Natl, Washington D.c., USA
Distance from station: SW 49mi, 79km
Updated: Wed, 22-Oct-2014 10:52pm EDT
Mostly cloudy
Mostly cloudy
 Wind from NW
Wind: NW 20 mph , 31 km/h, Gust: 28 mph , 44 km/h
Temperature: 55°F , 13°C
Dew Point: 43°F , 6°C
Humidity: 63%
Barometer: 29.94 inHg , 1013.9 hPa
Clouds: Mostly cloudy
Visibility: 10 miles , 16 km
Cloud details: Few Clouds 4300 ft
Mostly cloudy 5500 ft
2014/10/23 02:52 KDCA 230252Z 32017G24KT 10SM FEW043 BKN055 13/06 A2994 RMK AO2 SLP140 T01330061 50000
 
KLNS - Lancaster, Pennsylvania, USA
Distance from station: N 49mi, 79km
Updated: Wed, 22-Oct-2014 10:53pm EDT
Overcast
Overcast
 Wind from NNW
Wind: NNW 18 mph , 30 km/h, Gust: 30 mph , 48 km/h
Temperature: 52°F , 11°C
Dew Point: 43°F , 6°C
Humidity: 72%
Barometer: 29.90 inHg , 1012.5 hPa
Clouds: Overcast
Visibility: 10 miles , 16 km
Cloud details: Few Clouds 2900 ft
Overcast 5500 ft
2014/10/23 02:53 KLNS 230253Z AUTO 33016G26KT 10SM FEW029 OVC055 11/06 A2990 RMK AO2 PK WND 32026/0244 SLP127 60000 T01060061 58009
KILG - Wilmington, Delaware, USA
Distance from station: ENE 50mi, 81km
Updated: Wed, 22-Oct-2014 10:51pm EDT
Overcast
Overcast
 Wind from NW
Wind: NW 16 mph , 26 km/h, Gust: 24 mph , 39 km/h
Temperature: 52°F , 11°C
Dew Point: 48°F , 9°C
Humidity: 88%
Barometer: 29.84 inHg , 1010.5 hPa
Clouds: Overcast
Visibility: 10 miles , 16 km
Cloud details: Few Clouds 3200 ft
Mostly cloudy 4400 ft
Overcast 7000 ft
2014/10/23 02:51 KILG 230251Z 32014G21KT 10SM FEW032 BKN044 OVC070 11/09 A2984 RMK AO2 RAE41 SLP103 P0000 60000 T01110089 58010